Terminal Aerodrome Forecast
Issued by NWS Detroit/Pontiac, MI

Home | Current Version | Previous Version | Text Only | Print | Product List | Glossary On
Versions: 1 2 3 4 5 6 7 8 9 10 11 12 13 14 15 16 17 18 19 20 21 22 23 24 25 26 27 28
000
FTUS43 KDTX 010500
TAFDTW
TAF
KDTW 010525Z 0106/0212 23005KT P6SM SCT100
     FM011500 24006KT P6SM SCT050
     FM011800 24007KT P6SM BKN060
     FM012300 20004KT P6SM SCT060 BKN150=

USA.gov is the U.S. government's official web portal to all federal, state and local government web resources and services.